Data for 10/13/2009

Time Sea-Level Adjusted Pressure Absolute Pressure Temperature Relative Humidity Dew Point   
(mb) (inHg) (mb) (inHg) (C) (F) (%) (C) (F)
00:05 1012 29.88 841 24.83 -6.3 20.7 86 -8.2 17.2
00:10 1012 29.88 842 24.86 -6.3 20.7 86 -8.2 17.3
00:15 1012 29.88 842 24.86 -6.3 20.7 86 -8.2 17.2
00:20 1012 29.88 842 24.86 -6.3 20.6 87 -8.2 17.2
00:25 1012 29.88 842 24.86 -6.3 20.6 87 -8.2 17.3
00:30 1012 29.88 841 24.83 -6.3 20.6 87 -8.2 17.2
00:35 1012 29.88 842 24.86 -6.3 20.6 87 -8.2 17.2
00:40 1012 29.88 842 24.86 -6.3 20.6 87 -8.2 17.3
00:45 1012 29.88 842 24.86 -6.3 20.7 87 -8.1 17.4
00:50 1013 29.91 842 24.86 -6.3 20.6 87 -8.1 17.4
00:55 1012 29.88 842 24.86 -6.3 20.6 87 -8.1 17.3
01:00 1012 29.88 841 24.83 -6.3 20.6 86 -8.2 17.2
01:05 1012 29.88 841 24.83 -6.3 20.6 86 -8.3 17.1
01:10 1012 29.88 841 24.83 -6.3 20.6 86 -8.2 17.2
01:15 1012 29.88 841 24.83 -6.3 20.6 86 -8.3 17.1
01:20 1012 29.88 841 24.83 -6.3 20.6 86 -8.3 17.1
01:25 1012 29.88 841 24.83 -6.3 20.6 86 -8.3 17
01:30 1012 29.88 841 24.83 -6.3 20.6 86 -8.3 17
01:35 1012 29.88 841 24.83 -6.3 20.6 86 -8.4 17
01:40 1012 29.88 841 24.83 -6.3 20.7 85 -8.3 17
01:45 1012 29.88 841 24.83 -6.1 21 84 -8.3 17
01:50 1012 29.88 841 24.83 -6.1 21 85 -8.3 17.1
01:55 1012 29.88 841 24.83 -6.1 21 85 -8.3 17.1
02:00 1012 29.88 841 24.83 -6.1 21 85 -8.2 17.2
02:05 1012 29.88 841 24.83 -6.1 21.1 85 -8.2 17.2
02:10 1012 29.88 841 24.83 -6.1 21 85 -8.2 17.2
02:15 1012 29.88 841 24.83 -6.1 21.1 85 -8.2 17.3
02:20 1012 29.88 841 24.83 -6 21.2 85 -8.1 17.3
02:25 1012 29.88 841 24.83 -6 21.3 85 -8.1 17.4
02:30 1012 29.88 841 24.83 -5.9 21.3 85 -8.1 17.4
02:35 1012 29.88 841 24.83 -5.9 21.4 85 -8.1 17.5
02:40 1012 29.88 841 24.83 -6 21.3 85 -8.1 17.4
02:45 1012 29.88 841 24.83 -6 21.3 84 -8.2 17.3
02:50 1012 29.88 841 24.83 -5.9 21.4 84 -8.2 17.3
02:55 1012 29.88 841 24.83 -5.9 21.4 83 -8.3 17.1
03:00 1011 29.85 841 24.83 -5.9 21.4 83 -8.3 17
03:05 1011 29.85 841 24.83 -5.9 21.4 82 -8.4 16.8
03:10 1011 29.85 841 24.83 -5.8 21.6 82 -8.4 16.8
03:15 1011 29.85 841 24.83 -5.7 21.7 82 -8.3 17
03:20 1012 29.88 841 24.83 -5.8 21.6 82 -8.4 17
03:25 1012 29.88 841 24.83 -5.8 21.5 82 -8.4 16.9
03:30 1012 29.88 841 24.83 -5.9 21.4 83 -8.3 17.1
03:35 1011 29.85 841 24.83 -6 21.3 83 -8.4 16.9
03:40 1012 29.88 841 24.83 -5.9 21.4 83 -8.4 16.9
03:45 1012 29.88 841 24.83 -5.9 21.4 83 -8.3 17
03:50 1012 29.88 841 24.83 -6 21.3 84 -8.3 17.1
03:55 1011 29.85 841 24.83 -6 21.2 84 -8.3 17.1
04:00 1011 29.85 841 24.83 -6.1 21.1 84 -8.3 17.1
04:05 1011 29.85 841 24.83 -6.1 21 84 -8.3 17
04:10 1011 29.85 841 24.83 -6.2 20.9 84 -8.5 16.7
04:15 1011 29.85 841 24.83 -6.2 20.9 84 -8.4 16.8
04:20 1011 29.85 841 24.83 -6.2 20.9 85 -8.4 16.9
04:25 1011 29.85 841 24.83 -6.2 20.8 84 -8.5 16.8
04:30 1011 29.85 841 24.83 -6.2 20.9 85 -8.4 16.9
04:35 1012 29.88 841 24.83 -6.2 20.9 85 -8.4 17
04:40 1012 29.88 841 24.83 -6.2 20.9 85 -8.4 16.9
04:45 1012 29.88 841 24.83 -6.1 21 85 -8.3 17.1
04:50 1012 29.88 841 24.83 -6.1 21.1 84 -8.3 17
04:55 1012 29.88 841 24.83 -6 21.2 84 -8.3 17.1
05:00 1012 29.88 841 24.83 -6 21.2 85 -8.2 17.2
05:05 1012 29.88 841 24.83 -6 21.3 84 -8.3 17.1
05:10 1012 29.88 841 24.83 -5.9 21.4 83 -8.3 17.1
05:15 1012 29.88 841 24.83 -5.8 21.5 83 -8.2 17.2
05:20 1012 29.88 841 24.83 -5.8 21.5 83 -8.3 17.1
05:25 1012 29.88 841 24.83 -5.8 21.6 82 -8.3 17
05:30 1012 29.88 841 24.83 -5.8 21.6 83 -8.3 17.1
05:35 1012 29.88 841 24.83 -5.6 22 81 -8.4 16.9
05:40 1012 29.88 841 24.83 -5.4 22.3 79 -8.4 16.9
05:45 1012 29.88 841 24.83 -5.3 22.5 80 -8.3 17.1
05:50 1012 29.88 841 24.83 -5.4 22.3 81 -8.2 17.3
05:55 1012 29.88 841 24.83 -5.5 22.1 82 -8.1 17.3
06:00 1012 29.88 841 24.83 -5.6 22 83 -8.1 17.5
06:05 1012 29.88 841 24.83 -5.6 21.9 83 -8 17.5
06:10 1011 29.85 841 24.83 -5.7 21.8 84 -7.9 17.7
06:15 1011 29.85 841 24.83 -5.5 22.1 83 -8 17.6
06:20 1012 29.88 841 24.83 -5.5 22.1 82 -8 17.6
06:25 1012 29.88 841 24.83 -5.5 22.1 82 -8 17.5
06:30 1011 29.85 841 24.83 -5.3 22.4 82 -7.9 17.7
06:35 1011 29.85 841 24.83 -5.2 22.7 83 -7.6 18.2
06:40 1011 29.85 841 24.83 -5 23 82 -7.6 18.2
06:45 1011 29.85 841 24.83 -4.9 23.1 83 -7.4 18.7
06:50 1011 29.85 841 24.83 -4.9 23.1 84 -7.2 19.1
06:55 1011 29.85 841 24.83 -4.9 23.2 84 -7.2 19
07:00 1011 29.85 841 24.83 -4.9 23.1 84 -7.2 19
07:05 1011 29.85 841 24.83 -4.9 23.2 84 -7.2 19
07:10 1011 29.85 841 24.83 -4.9 23.1 85 -7.1 19.2
07:15 1011 29.85 840 24.81 -4.9 23.2 84 -7.1 19.2
07:20 1011 29.85 840 24.81 -4.7 23.6 84 -7 19.4
07:25 1011 29.85 841 24.83 -4.6 23.7 84 -6.9 19.5
07:30 1011 29.85 841 24.83 -4.5 23.9 83 -7 19.4
07:35 1011 29.85 841 24.83 -4.5 23.9 84 -6.8 19.7
07:40 1011 29.85 841 24.83 -4.4 24 84 -6.7 20
07:45 1011 29.85 841 24.83 -4.4 24.1 84 -6.7 19.9
07:50 1011 29.85 840 24.81 -4.4 24.2 84 -6.7 19.9
07:55 1011 29.85 841 24.83 -4.4 24 85 -6.6 20.2
08:00 1011 29.85 841 24.83 -4.6 23.7 87 -6.5 20.2
08:05 1011 29.85 841 24.83 -4.7 23.6 87 -6.6 20.1
08:10 1011 29.85 841 24.83 -4.6 23.7 86 -6.6 20.2
08:15 1011 29.85 841 24.83 -4.6 23.8 85 -6.7 20
08:20 1012 29.88 841 24.83 -4.5 23.9 86 -6.4 20.4
08:25 1012 29.88 841 24.83 -4.3 24.3 86 -6.3 20.7
08:30 1012 29.88 841 24.83 -4.3 24.3 86 -6.2 20.8
08:35 1012 29.88 841 24.83 -4.2 24.5 85 -6.3 20.7
08:40 1012 29.88 841 24.83 -4.2 24.5 86 -6.2 20.8
08:45 1012 29.88 841 24.83 -4 24.9 85 -6.1 21
08:50 1012 29.88 841 24.83 -4.1 24.7 86 -6 21.2
08:55 1012 29.88 841 24.83 -4.2 24.4 87 -6.2 20.9
09:00 1012 29.88 841 24.83 -4.3 24.2 86 -6.3 20.7
09:05 1012 29.88 842 24.86 -3.9 24.9 85 -6.2 20.9
09:10 1012 29.88 842 24.86 -3.8 25.1 85 -6.1 21.1
09:15 1012 29.88 842 24.86 -3.8 25.2 85 -6 21.2
09:20 1012 29.88 842 24.86 -3.7 25.4 83 -6.2 20.9
09:25 1012 29.88 841 24.83 -3.6 25.6 82 -6.3 20.7
09:30 1012 29.88 841 24.83 -3.4 25.8 81 -6.2 20.9
09:35 1012 29.88 841 24.83 -3.5 25.7 81 -6.3 20.6
09:40 1012 29.88 841 24.83 -3.5 25.8 82 -6 21.1
09:45 1012 29.88 841 24.83 -3.3 26.1 81 -6.2 20.9
09:50 1012 29.88 841 24.83 -3.3 26.2 79 -6.4 20.4
09:55 1012 29.88 841 24.83 -3.3 26 79 -6.4 20.5
10:00 1012 29.88 841 24.83 -3.2 26.3 80 -6.2 20.8
10:05 1012 29.88 841 24.83 -2.9 26.7 79 -6.2 20.9
10:10 1012 29.88 841 24.83 -2.7 27.1 76 -6.4 20.5
10:15 1012 29.88 841 24.83 -3 26.7 74 -6.9 19.6
10:20 1012 29.88 841 24.83 -3.1 26.3 76 -6.9 19.7
10:25 1012 29.88 841 24.83 -3 26.7 75 -6.8 19.7
10:30 1012 29.88 841 24.83 -2.8 27 76 -6.5 20.3
10:35 1012 29.88 841 24.83 -2.8 27 75 -6.6 20.1
10:40 1012 29.88 841 24.83 -2.3 27.8 73 -6.5 20.4
10:45 1012 29.88 841 24.83 -2.2 28 74 -6.3 20.7
10:50 1012 29.88 842 24.86 -2.4 27.8 74 -6.4 20.4
10:55 1012 29.88 842 24.86 -2.1 28.2 72 -6.5 20.3
11:00 1013 29.91 842 24.86 -2.2 28.1 74 -6.2 20.9
11:05 1012 29.88 842 24.86 -1.8 28.7 73 -6.1 21.1
11:10 1012 29.88 842 24.86 -1.9 28.6 71 -6.4 20.4
11:15 1012 29.88 842 24.86 -1.4 29.4 70 -6.3 20.7
11:20 1012 29.88 842 24.86 -1 30.1 72 -5.5 22.1
11:25 1012 29.88 842 24.86 -0.6 30.8 70 -5.5 22.1
11:30 1012 29.88 842 24.86 -0.7 30.8 71 -5.2 22.6
11:35 1012 29.88 842 24.86 -0.4 31.3 70 -5.2 22.6
11:40 1012 29.88 842 24.86 0.4 32.8 66 -5.2 22.7
11:45 1012 29.88 842 24.86 0.4 32.6 66 -5.2 22.7
11:50 1012 29.88 841 24.83 -0.1 31.8 66 -5.7 21.7
11:55 1012 29.88 841 24.83 -0.3 31.5 67 -5.7 21.7
12:00 1012 29.88 841 24.83 0 32.1 66 -5.6 22
12:05 1012 29.88 841 24.83 0.1 32.1 66 -5.6 21.9
12:10 1012 29.88 841 24.83 0.2 32.4 64 -5.8 21.6
12:15 1012 29.88 841 24.83 1 33.8 61 -5.7 21.8
12:20 1012 29.88 841 24.83 1.7 35.1 62 -4.8 23.3
12:25 1012 29.88 841 24.83 2.3 36.2 59 -4.9 23.1
12:30 1012 29.88 841 24.83 1.9 35.4 65 -3.9 25
12:35 1012 29.88 841 24.83 1.4 34.6 61 -5.2 22.7
12:40 1012 29.88 842 24.86 1.2 34.2 63 -5.1 22.8
12:45 1012 29.88 842 24.86 1.8 35.2 61 -5 23
12:50 1012 29.88 842 24.86 1.1 34 63 -5.2 22.7
12:55 1012 29.88 842 24.86 1.3 34.4 63 -4.9 23.2
13:00 1012 29.88 842 24.86 1.1 34 63 -5.1 22.9
13:05 1012 29.88 842 24.86 0.8 33.4 66 -4.8 23.3
13:10 1012 29.88 842 24.86 1.4 34.6 64 -4.6 23.8
13:15 1012 29.88 841 24.83 1.5 34.7 65 -4.4 24.1
13:20 1012 29.88 841 24.83 2.1 35.8 61 -4.6 23.7
13:25 1012 29.88 841 24.83 2.3 36.1 64 -3.8 25.1
13:30 1012 29.88 841 24.83 2.2 36 63 -4.1 24.6
13:35 1012 29.88 841 24.83 2.3 36.1 62 -4.3 24.3
13:40 1012 29.88 841 24.83 2.2 35.9 63 -4.1 24.6
13:45 1012 29.88 841 24.83 2 35.6 63 -4.3 24.3
13:50 1012 29.88 841 24.83 2.4 36.4 60 -4.6 23.7
13:55 1012 29.88 841 24.83 2.2 35.9 61 -4.6 23.7
14:00 1011 29.85 841 24.83 2.3 36.2 61 -4.4 24.1
14:05 1011 29.85 841 24.83 2.1 35.7 63 -4.3 24.3
14:10 1012 29.88 841 24.83 2.6 36.7 61 -4.1 24.7
14:15 1011 29.85 841 24.83 2.6 36.7 64 -3.5 25.8
14:20 1011 29.85 841 24.83 2.8 37 62 -3.9 25.1
14:25 1011 29.85 841 24.83 2.7 36.9 64 -3.4 25.8
14:30 1011 29.85 840 24.81 2.5 36.5 65 -3.4 25.9
14:35 1011 29.85 840 24.81 2.7 36.8 64 -3.5 25.8
14:40 1011 29.85 840 24.81 2.7 36.9 65 -3.2 26.3
14:45 1011 29.85 840 24.81 3.3 37.9 62 -3.3 26
14:50 1011 29.85 840 24.81 3.8 38.8 61 -3.1 26.4
14:55 1011 29.85 840 24.81 3.7 38.6 62 -2.9 26.7
15:00 1011 29.85 840 24.81 3.3 38 62 -3.2 26.3
15:05 1011 29.85 840 24.81 3.2 37.7 63 -3.1 26.4
15:10 1011 29.85 840 24.81 3.3 37.9 62 -3.3 26
15:15 1010 29.83 840 24.81 3.2 37.7 63 -3.1 26.4
15:20 1010 29.83 840 24.81 3.1 37.6 63 -3.2 26.3
15:25 1010 29.83 839 24.78 3.3 38 64 -2.9 26.9
15:30 1010 29.83 839 24.78 2.9 37.3 64 -3.2 26.2
15:35 1010 29.83 839 24.78 2.8 37 64 -3.4 25.9
15:40 1010 29.83 840 24.81 2.6 36.7 63 -3.7 25.4
15:45 1010 29.83 840 24.81 2.7 36.9 65 -3.2 26.3
15:50 1010 29.83 840 24.81 3 37.4 64 -3.1 26.4
15:55 1010 29.83 840 24.81 3.2 37.8 63 -3.1 26.3
16:00 1010 29.83 839 24.78 3.4 38.2 63 -2.9 26.8
16:05 1010 29.83 840 24.81 3.4 38 64 -2.8 26.9
16:10 1010 29.83 840 24.81 3.2 37.8 65 -2.6 27.2
16:15 1010 29.83 840 24.81 3.3 37.9 64 -2.8 27
16:20 1011 29.85 840 24.81 3.4 38.2 63 -2.9 26.8
16:25 1011 29.85 840 24.81 3.2 37.7 64 -2.9 26.7
16:30 1011 29.85 840 24.81 3 37.3 64 -3.2 26.2
16:35 1011 29.85 840 24.81 2.6 36.8 65 -3.2 26.2
16:40 1011 29.85 840 24.81 2.4 36.3 66 -3.3 26.1
16:45 1011 29.85 840 24.81 2.2 35.9 66 -3.5 25.7
16:50 1011 29.85 840 24.81 1.9 35.5 66 -3.7 25.4
16:55 1011 29.85 840 24.81 1.9 35.5 67 -3.5 25.6
17:00 1010 29.83 840 24.81 2 35.5 67 -3.4 25.8
17:05 1010 29.83 840 24.81 1.9 35.4 68 -3.4 25.9
17:10 1010 29.83 840 24.81 1.6 35 69 -3.5 25.7
17:15 1010 29.83 840 24.81 1.5 34.7 69 -3.5 25.7
17:20 1010 29.83 839 24.78 1.7 35 69 -3.4 25.9
17:25 1010 29.83 839 24.78 1.6 34.8 69 -3.5 25.7
17:30 1010 29.83 839 24.78 1.6 34.8 69 -3.6 25.5
17:35 1010 29.83 839 24.78 1.4 34.5 69 -3.7 25.4
17:40 1010 29.83 839 24.78 1.4 34.5 69 -3.8 25.2
17:45 1010 29.83 839 24.78 1.3 34.4 69 -3.7 25.3
17:50 1010 29.83 839 24.78 1.2 34.2 70 -3.7 25.4
17:55 1010 29.83 839 24.78 1.2 34.2 70 -3.7 25.4
18:00 1010 29.83 839 24.78 1.2 34.1 70 -3.6 25.4
18:05 1010 29.83 839 24.78 1.1 34 71 -3.6 25.5
18:10 1010 29.83 839 24.78 1.2 34.1 70 -3.7 25.4
18:15 1010 29.83 839 24.78 1.2 34.2 70 -3.6 25.5
18:20 1010 29.83 839 24.78 1 33.8 71 -3.7 25.3
18:25 1010 29.83 839 24.78 1 33.8 71 -3.7 25.4
18:30 1010 29.83 839 24.78 1.1 34.1 71 -3.5 25.7
18:35 1010 29.83 839 24.78 1.2 34.1 71 -3.4 25.8
18:40 1010 29.83 839 24.78 1.1 33.9 72 -3.4 25.9
18:45 1010 29.83 839 24.78 1 33.9 72 -3.4 25.9
18:50 1010 29.83 839 24.78 1 33.8 73 -3.4 26
18:55 1010 29.83 839 24.78 0.9 33.7 73 -3.4 25.9
19:00 1010 29.83 839 24.78 0.9 33.6 73 -3.4 25.9
19:05 1010 29.83 839 24.78 0.9 33.6 73 -3.4 25.9
19:10 1010 29.83 839 24.78 1 33.7 73 -3.3 26
19:15 1010 29.83 839 24.78 1 33.8 73 -3.2 26.2
19:20 1010 29.83 839 24.78 1.1 33.9 74 -3.1 26.3
19:25 1010 29.83 839 24.78 1.1 34 74 -3 26.6
19:30 1009 29.8 839 24.78 1 33.8 74 -3.1 26.3
19:35 1009 29.8 839 24.78 0.9 33.7 73 -3.3 26.1
19:40 1009 29.8 839 24.78 0.9 33.6 74 -3.3 26.1
19:45 1009 29.8 839 24.78 1 33.7 74 -3.2 26.3
19:50 1009 29.8 839 24.78 1.1 33.9 73 -3.3 26.1
19:55 1010 29.83 839 24.78 1 33.7 73 -3.3 26.1
20:00 1010 29.83 839 24.78 1 33.8 73 -3.3 26.1
20:05 1010 29.83 839 24.78 1 33.8 73 -3.4 25.9
20:10 1010 29.83 839 24.78 1 33.8 74 -3.2 26.3
20:15 1010 29.83 839 24.78 0.8 33.5 74 -3.2 26.2
20:20 1010 29.83 839 24.78 0.9 33.5 74 -3.3 26.1
20:25 1009 29.8 839 24.78 1 33.7 74 -3.2 26.3
20:30 1009 29.8 838 24.75 1 33.8 73 -3.2 26.2
20:35 1009 29.8 838 24.75 1 33.8 73 -3.4 25.9
20:40 1009 29.8 838 24.75 0.7 33.2 74 -3.5 25.7
20:45 1009 29.8 838 24.75 0.5 32.9 74 -3.6 25.6
20:50 1009 29.8 838 24.75 0.6 33.1 73 -3.6 25.5
20:55 1008 29.77 837 24.72 0.4 32.8 74 -3.6 25.4
21:00 1008 29.77 837 24.72 0.1 32.3 75 -3.8 25.1
21:05 1008 29.77 837 24.72 0 32.1 75 -3.9 25
21:10 1008 29.77 837 24.72 0.1 32.1 76 -3.7 25.3
21:15 1008 29.77 837 24.72 0.2 32.3 75 -3.7 25.4
21:20 1008 29.77 837 24.72 0.2 32.4 75 -3.7 25.4
21:25 1008 29.77 837 24.72 0.3 32.5 75 -3.6 25.6
21:30 1008 29.77 837 24.72 0.4 32.7 75 -3.5 25.7
21:35 1008 29.77 837 24.72 0.3 32.6 75 -3.5 25.7
21:40 1008 29.77 837 24.72 0.4 32.8 75 -3.5 25.8
21:45 1008 29.77 837 24.72 0.4 32.8 75 -3.4 25.9
21:50 1008 29.77 837 24.72 0.4 32.7 75 -3.5 25.7
21:55 1008 29.77 837 24.72 0.3 32.6 75 -3.5 25.7
22:00 1008 29.77 837 24.72 0.2 32.4 76 -3.6 25.5
22:05 1009 29.8 838 24.75 0.1 32.2 75 -3.8 25.1
22:10 1009 29.8 838 24.75 -0 32 76 -3.7 25.3
22:15 1009 29.8 838 24.75 -0 32 76 -3.8 25.2
22:20 1008 29.77 838 24.75 -0.1 31.9 76 -3.8 25.1
22:25 1008 29.77 838 24.75 -0 32 75 -3.9 25
22:30 1008 29.77 837 24.72 -0.1 31.9 76 -3.9 25.1
22:35 1008 29.77 837 24.72 -0.1 31.9 76 -3.8 25.1
22:40 1008 29.77 837 24.72 -0.1 31.8 75 -3.9 24.9
22:45 1008 29.77 837 24.72 -0.3 31.4 77 -3.9 25
22:50 1008 29.77 837 24.72 -0.3 31.4 77 -3.8 25.1
22:55 1008 29.77 838 24.75 -0.4 31.4 78 -3.8 25.2
23:00 1009 29.8 838 24.75 -0.4 31.2 78 -3.8 25.2
23:05 1009 29.8 838 24.75 -0.6 31 79 -3.9 25.1
23:10 1008 29.77 838 24.75 -0.6 30.9 79 -3.9 25
23:15 1009 29.8 838 24.75 -0.6 30.9 79 -3.9 25
23:20 1009 29.8 838 24.75 -0.6 31 78 -3.9 25.1
23:25 1009 29.8 838 24.75 -0.7 30.8 79 -3.9 25
23:30 1009 29.8 838 24.75 -0.6 30.8 79 -3.8 25.1
23:35 1009 29.8 838 24.75 -0.4 31.2 79 -3.7 25.4
23:40 1009 29.8 838 24.75 -0.3 31.5 78 -3.6 25.5
23:45 1008 29.77 838 24.75 -0.5 31.1 79 -3.8 25.2
23:50 1008 29.77 838 24.75 -0.6 30.9 79 -3.9 25.1
23:55 1008 29.77 837 24.72 -0.6 30.9 79 -3.8 25.1
24:00 1008 29.77 837 24.72 -0.7 30.7 80 -3.8 25.2